createdAt,value
2018-08-25T00:01:36.247Z,93.60
2018-08-25T00:04:04.917Z,93.70
2018-08-25T00:06:33.691Z,93.20
2018-08-25T00:09:05.252Z,92.60
2018-08-25T00:11:33.987Z,93.00
2018-08-25T00:14:02.665Z,92.80
2018-08-25T00:16:31.284Z,92.00
2018-08-25T00:19:00.023Z,92.90
2018-08-25T00:21:28.599Z,93.00
2018-08-25T00:23:58.753Z,93.20
2018-08-25T00:26:27.456Z,93.20
2018-08-25T00:28:56.147Z,93.00
2018-08-25T00:31:25.446Z,92.80
2018-08-25T00:33:55.376Z,93.10
2018-08-25T00:36:24.741Z,93.00
2018-08-25T00:38:53.478Z,92.50
2018-08-25T00:41:22.230Z,92.40
2018-08-25T00:43:50.949Z,92.40
2018-08-25T00:46:21.219Z,92.10
2018-08-25T00:48:49.983Z,92.40
2018-08-25T00:51:18.816Z,92.30
2018-08-25T00:53:47.474Z,92.20
2018-08-25T00:56:18.930Z,91.80
2018-08-25T00:58:47.675Z,91.50
2018-08-25T01:01:16.347Z,91.30
2018-08-25T01:03:45.113Z,91.60
2018-08-25T01:06:13.724Z,91.70
2018-08-25T01:08:42.441Z,92.70
2018-08-25T01:11:11.196Z,91.50
2018-08-25T01:13:39.990Z,91.40
2018-08-25T01:16:08.790Z,91.50
2018-08-25T01:18:37.497Z,91.60
2018-08-25T01:21:06.219Z,91.40
2018-08-25T01:23:34.966Z,91.30
2018-08-25T01:26:03.613Z,91.30
2018-08-25T01:28:32.340Z,91.10
2018-08-25T01:31:00.999Z,90.90
2018-08-25T01:33:29.811Z,90.20
2018-08-25T01:35:58.560Z,87.90
2018-08-25T01:38:27.366Z,85.90
2018-08-25T01:40:56.340Z,85.70
2018-08-25T01:43:25.084Z,85.50
2018-08-25T01:45:54.323Z,82.80
2018-08-25T01:48:23.006Z,82.80
2018-08-25T01:50:51.848Z,85.50
2018-08-25T01:53:20.530Z,85.60
2018-08-25T01:55:49.245Z,85.00
2018-08-25T01:58:19.537Z,84.50
2018-08-25T02:00:48.238Z,84.50
2018-08-25T02:03:17.064Z,85.10
2018-08-25T02:05:45.715Z,85.20
2018-08-25T02:08:14.415Z,84.30
2018-08-25T02:10:43.129Z,84.20
2018-08-25T02:13:11.688Z,84.20
2018-08-25T02:15:40.283Z,84.00
2018-08-25T02:18:10.339Z,83.80
2018-08-25T02:20:39.137Z,84.10
2018-08-25T02:23:07.872Z,83.90
2018-08-25T02:25:36.414Z,84.00
2018-08-25T02:28:05.318Z,82.20
2018-08-25T02:30:33.967Z,83.30
2018-08-25T02:33:02.739Z,83.60
2018-08-25T02:35:32.195Z,82.50
2018-08-25T02:38:00.911Z,83.20
2018-08-25T02:40:29.617Z,83.50
2018-08-25T02:42:59.476Z,82.80
2018-08-25T02:45:28.087Z,83.00
2018-08-25T02:47:56.904Z,82.70
2018-08-25T02:50:25.694Z,82.20
2018-08-25T02:52:54.421Z,81.80
2018-08-25T02:55:23.581Z,81.50
2018-08-25T02:57:52.263Z,81.60
2018-08-25T03:00:20.859Z,81.40
2018-08-25T03:02:49.558Z,81.50
2018-08-25T03:05:18.168Z,82.00
2018-08-25T03:07:46.933Z,81.70
2018-08-25T03:10:15.755Z,81.40
2018-08-25T03:12:44.611Z,81.10
2018-08-25T03:15:13.232Z,81.30
2018-08-25T03:17:41.929Z,81.00
2018-08-25T03:20:10.610Z,81.00
2018-08-25T03:22:39.287Z,80.90
2018-08-25T03:25:08.040Z,80.30
2018-08-25T03:27:38.582Z,81.30
2018-08-25T03:30:09.714Z,82.20
2018-08-25T03:32:42.377Z,81.90
2018-08-25T03:35:11.165Z,81.80
2018-08-25T03:37:39.955Z,81.50
2018-08-25T03:40:08.732Z,81.60
2018-08-25T03:44:06.649Z,82.10
2018-08-25T03:46:38.602Z,82.40
2018-08-25T03:49:08.816Z,82.90
2018-08-25T03:51:37.605Z,83.10
2018-08-25T03:54:06.408Z,83.70
2018-08-25T03:56:35.221Z,83.70
2018-08-25T03:59:04.147Z,82.80
2018-08-25T04:01:33.018Z,82.90
2018-08-25T04:04:01.669Z,83.10
2018-08-25T04:06:30.423Z,83.10
2018-08-25T04:08:59.154Z,83.60
2018-08-25T04:11:27.855Z,83.80
2018-08-25T04:13:56.526Z,84.50
2018-08-25T04:16:25.428Z,84.80
2018-08-25T04:18:54.162Z,85.20
2018-08-25T04:21:23.015Z,85.60
2018-08-25T04:23:51.706Z,85.50
2018-08-25T04:26:20.985Z,85.50
2018-08-25T04:28:49.691Z,85.70
2018-08-25T04:31:18.431Z,85.60
2018-08-25T04:33:48.149Z,86.60
2018-08-25T04:36:16.846Z,86.50
2018-08-25T04:38:45.505Z,86.50
2018-08-25T04:41:14.251Z,86.30
2018-08-25T04:43:42.920Z,86.50
2018-08-25T04:46:13.643Z,86.50
2018-08-25T04:48:42.375Z,86.00
2018-08-25T04:51:11.072Z,86.20
2018-08-25T04:53:39.862Z,86.10
2018-08-25T04:56:09.011Z,86.20
2018-08-25T04:58:37.836Z,84.60
2018-08-25T05:01:06.736Z,84.70
2018-08-25T05:03:38.494Z,82.70
2018-08-25T05:06:07.161Z,84.00
2018-08-25T05:08:35.856Z,83.60
2018-08-25T05:11:04.599Z,83.70
2018-08-25T05:13:33.520Z,83.00
2018-08-25T05:16:02.371Z,83.30
2018-08-25T05:18:31.186Z,82.90
2018-08-25T05:20:59.930Z,83.00
2018-08-25T05:23:29.674Z,83.30
2018-08-25T05:25:58.570Z,83.50
2018-08-25T05:28:27.346Z,83.00
2018-08-25T05:30:56.178Z,82.60
2018-08-25T05:33:25.004Z,82.20
2018-08-25T05:35:53.722Z,82.50
2018-08-25T05:38:22.718Z,82.40
2018-08-25T05:40:51.368Z,82.20
2018-08-25T05:43:22.622Z,82.10
2018-08-25T05:45:51.358Z,82.00
2018-08-25T05:48:22.241Z,82.00
2018-08-25T05:50:50.930Z,82.30
2018-08-25T05:53:22.999Z,82.30
2018-08-25T05:55:51.945Z,82.30
2018-08-25T05:58:20.904Z,82.30
2018-08-25T06:00:49.532Z,82.50
2018-08-25T06:03:18.367Z,83.80
2018-08-25T06:05:47.156Z,83.80
2018-08-25T06:08:15.863Z,83.30
2018-08-25T06:10:44.551Z,83.80
2018-08-25T06:13:13.258Z,84.00
2018-08-25T06:15:41.951Z,83.40
2018-08-25T06:18:11.299Z,83.10
2018-08-25T06:20:40.025Z,84.10
2018-08-25T06:23:08.732Z,82.30
2018-08-25T06:25:37.437Z,83.60
2018-08-25T06:28:07.780Z,83.30
2018-08-25T06:30:36.558Z,83.50
2018-08-25T06:33:05.745Z,83.20
2018-08-25T06:35:34.522Z,83.30
2018-08-25T06:38:05.512Z,82.70
2018-08-25T06:40:34.414Z,81.70
2018-08-25T06:43:03.457Z,81.30
2018-08-25T06:45:32.964Z,81.00
2018-08-25T06:48:01.986Z,81.20
2018-08-25T06:50:31.079Z,80.40
2018-08-25T06:53:01.526Z,80.30
2018-08-25T06:55:31.973Z,80.10
2018-08-25T06:58:01.952Z,79.50
2018-08-25T07:00:31.387Z,78.70
2018-08-25T07:03:01.250Z,79.00
2018-08-25T07:05:30.049Z,79.10
2018-08-25T07:08:01.326Z,80.00
2018-08-25T07:10:30.326Z,78.80
2018-08-25T07:12:59.523Z,77.90
2018-08-25T07:15:28.296Z,77.30
2018-08-25T07:17:57.245Z,77.50
2018-08-25T07:20:26.186Z,78.50
2018-08-25T07:22:54.867Z,78.60
2018-08-25T07:25:24.784Z,78.30
2018-08-25T07:27:53.956Z,77.40
2018-08-25T07:30:22.947Z,78.40
2018-08-25T07:32:53.948Z,77.80
2018-08-25T07:35:22.928Z,77.20
2018-08-25T07:37:53.048Z,77.40
2018-08-25T07:40:22.439Z,77.60
2018-08-25T07:42:51.763Z,77.00
2018-08-25T07:45:20.964Z,76.40
2018-08-25T07:47:51.567Z,76.20
2018-08-25T07:50:20.199Z,76.10
2018-08-25T07:52:48.973Z,75.20
2018-08-25T07:55:17.967Z,75.70
2018-08-25T07:57:46.634Z,76.10
2018-08-25T08:00:15.406Z,76.30
2018-08-25T08:02:44.122Z,77.10
2018-08-25T08:05:12.714Z,78.50
2018-08-25T08:07:41.585Z,76.50
2018-08-25T08:10:11.036Z,75.40
2018-08-25T08:12:39.702Z,74.80
2018-08-25T08:15:08.479Z,74.00
2018-08-25T08:17:37.279Z,73.60
2018-08-25T08:20:06.528Z,72.50
2018-08-25T08:22:35.218Z,71.90
2018-08-25T08:25:04.047Z,71.70
2018-08-25T08:27:34.619Z,71.80
2018-08-25T08:30:05.294Z,72.80
2018-08-25T08:32:34.006Z,73.70
2018-08-25T08:35:02.768Z,73.20
2018-08-25T08:37:31.657Z,73.50
2018-08-25T08:40:00.433Z,73.90
2018-08-25T08:42:29.104Z,74.10
2018-08-25T08:44:59.498Z,73.50
2018-08-25T08:47:28.069Z,73.60
2018-08-25T08:49:56.906Z,73.70
2018-08-25T08:52:25.650Z,73.90
2018-08-25T08:54:54.327Z,72.10
2018-08-25T08:57:23.144Z,72.50
2018-08-25T08:59:51.864Z,72.70
2018-08-25T09:02:20.502Z,73.40
2018-08-25T09:04:49.401Z,73.80
2018-08-25T09:07:18.040Z,73.70
2018-08-25T09:09:46.741Z,74.80
2018-08-25T09:12:15.475Z,75.10
2018-08-25T09:14:44.059Z,75.40
2018-08-25T09:17:15.005Z,74.00
2018-08-25T09:19:43.992Z,75.40
2018-08-25T09:22:12.807Z,76.20
2018-08-25T09:24:42.963Z,75.10
2018-08-25T09:27:11.705Z,75.80
2018-08-25T09:29:40.378Z,75.90
2018-08-25T09:32:11.722Z,75.90
2018-08-25T09:34:40.447Z,76.20
2018-08-25T09:37:09.838Z,75.70
2018-08-25T09:39:38.523Z,77.40
2018-08-25T09:42:08.159Z,77.10
2018-08-25T09:44:36.923Z,77.20
2018-08-25T09:47:06.467Z,78.70
2018-08-25T09:49:35.324Z,78.50
2018-08-25T09:52:04.216Z,78.30
2018-08-25T09:54:34.320Z,77.20
2018-08-25T09:57:03.076Z,76.80
2018-08-25T09:59:32.709Z,75.30
2018-08-25T10:02:02.429Z,77.80
2018-08-25T10:04:32.981Z,79.10
2018-08-25T10:07:04.720Z,78.90
2018-08-25T10:09:33.501Z,78.00
2018-08-25T10:12:02.198Z,78.60
2018-08-25T10:14:31.080Z,78.30
2018-08-25T10:17:01.129Z,79.20
2018-08-25T10:19:29.914Z,78.40
2018-08-25T10:21:58.598Z,77.70
2018-08-25T10:24:27.306Z,77.70
2018-08-25T10:26:56.127Z,78.50
2018-08-25T10:29:24.906Z,77.00
2018-08-25T10:31:53.602Z,78.10
2018-08-25T10:34:22.312Z,77.00
2018-08-25T10:36:57.231Z,77.20
2018-08-25T10:39:26.150Z,78.40
2018-08-25T10:41:55.320Z,74.80
2018-08-25T10:44:24.170Z,72.40
2018-08-25T10:46:56.941Z,74.40
2018-08-25T10:49:26.048Z,75.10
2018-08-25T10:51:57.260Z,75.40
2018-08-25T10:54:25.944Z,75.20
2018-08-25T10:56:54.623Z,75.90
2018-08-25T10:59:23.390Z,75.60
2018-08-25T11:01:52.051Z,74.50
2018-08-25T11:04:20.811Z,73.30
2018-08-25T11:06:49.527Z,75.50
2018-08-25T11:09:19.841Z,72.50
2018-08-25T11:11:49.179Z,73.20
2018-08-25T11:14:18.049Z,74.70
2018-08-25T11:16:47.038Z,74.80
2018-08-25T11:19:15.850Z,73.90
2018-08-25T11:21:44.606Z,73.20
2018-08-25T11:24:13.415Z,74.70
2018-08-25T11:26:42.392Z,73.30
2018-08-25T11:29:14.565Z,73.30
2018-08-25T11:31:43.558Z,73.10
2018-08-25T11:34:12.379Z,71.00
2018-08-25T11:36:41.382Z,70.60
2018-08-25T11:39:11.074Z,69.20
2018-08-25T11:41:40.090Z,67.10
2018-08-25T11:44:09.263Z,69.20
2018-08-25T11:46:38.230Z,67.80
2018-08-25T11:49:07.034Z,66.30
2018-08-25T11:51:35.831Z,65.70
2018-08-25T11:54:05.110Z,65.70
2018-08-25T11:56:33.862Z,64.40
2018-08-25T11:59:02.844Z,64.40
2018-08-25T12:01:32.515Z,64.80
2018-08-25T12:04:01.969Z,62.00
2018-08-25T12:06:30.925Z,61.60
2018-08-25T12:08:59.727Z,62.30
2018-08-25T12:11:28.524Z,61.60
2018-08-25T12:13:57.299Z,63.00
2018-08-25T12:16:26.434Z,63.70
2018-08-25T12:18:55.276Z,63.30
2018-08-25T12:21:24.461Z,63.00
2018-08-25T12:23:54.213Z,61.00
2018-08-25T12:26:23.131Z,62.40
2018-08-25T12:28:51.867Z,60.40
2018-08-25T12:31:20.523Z,61.10
2018-08-25T12:33:49.460Z,62.20
2018-08-25T12:36:18.118Z,62.00
2018-08-25T12:38:46.815Z,61.90
2018-08-25T12:41:15.641Z,62.70
2018-08-25T12:43:46.829Z,61.10
2018-08-25T12:46:15.529Z,60.80
2018-08-25T12:48:44.244Z,60.50
2018-08-25T12:51:12.873Z,63.10
2018-08-25T12:53:41.635Z,63.00
2018-08-25T12:56:10.538Z,63.10
2018-08-25T12:58:39.403Z,61.50
2018-08-25T13:01:08.221Z,58.30
2018-08-25T13:03:37.325Z,57.90
2018-08-25T13:06:06.007Z,56.30
2018-08-25T13:08:34.782Z,55.70
2018-08-25T13:11:03.445Z,56.60
2018-08-25T13:13:32.072Z,56.80
2018-08-25T13:16:00.803Z,57.00
2018-08-25T13:18:29.767Z,57.20
2018-08-25T13:20:58.529Z,57.50
2018-08-25T13:23:27.990Z,54.40
2018-08-25T13:25:56.539Z,54.50
2018-08-25T13:28:25.301Z,56.30
2018-08-25T13:30:54.127Z,57.20
2018-08-25T13:33:22.702Z,57.40
2018-08-25T13:35:51.406Z,57.40
2018-08-25T13:38:22.513Z,58.30
2018-08-25T13:40:51.377Z,57.30
2018-08-25T13:43:19.991Z,56.90
2018-08-25T13:45:48.761Z,57.00
2018-08-25T13:48:17.511Z,55.70
2018-08-25T13:50:46.237Z,58.40
2018-08-25T13:53:14.909Z,58.50
2018-08-25T13:55:43.740Z,59.70
2018-08-25T13:58:12.602Z,58.80
2018-08-25T14:00:42.787Z,59.00
2018-08-25T14:03:11.503Z,59.30
2018-08-25T14:05:40.274Z,59.50
2018-08-25T14:08:09.029Z,59.80
2018-08-25T14:10:37.957Z,60.00
2018-08-25T14:13:06.671Z,60.60
2018-08-25T14:15:35.347Z,61.20
2018-08-25T14:18:04.032Z,62.20
2018-08-25T14:20:34.927Z,63.00
2018-08-25T14:23:04.759Z,64.20
2018-08-25T14:25:33.477Z,64.00
2018-08-25T14:28:02.175Z,65.00
2018-08-25T14:30:31.875Z,65.40
2018-08-25T14:33:00.628Z,66.00
2018-08-25T14:35:29.370Z,67.80
2018-08-25T14:37:58.114Z,68.30
2018-08-25T14:40:28.642Z,70.10
2018-08-25T14:42:57.531Z,69.60
2018-08-25T14:45:26.379Z,70.70
2018-08-25T14:47:55.197Z,71.30
2018-08-25T14:50:24.021Z,70.40
2018-08-25T14:52:52.929Z,71.60
2018-08-25T14:55:21.644Z,72.90
2018-08-25T14:57:50.384Z,71.40
2018-08-25T15:00:19.135Z,72.30
2018-08-25T15:02:48.279Z,72.50
2018-08-25T15:05:16.953Z,73.90
2018-08-25T15:07:46.595Z,73.60
2018-08-25T15:10:15.454Z,75.20
2018-08-25T15:12:44.040Z,75.50
2018-08-25T15:15:12.931Z,76.70
2018-08-25T15:17:41.617Z,77.60
2018-08-25T15:20:10.366Z,78.40
2018-08-25T15:22:39.037Z,79.00
2018-08-25T15:25:08.077Z,80.70
2018-08-25T15:27:36.743Z,82.50
2018-08-25T15:30:05.485Z,80.70
2018-08-25T15:32:34.132Z,84.20
2018-08-25T15:35:04.174Z,85.80
2018-08-25T15:37:36.774Z,85.30
2018-08-25T15:40:07.485Z,83.00
2018-08-25T15:42:36.849Z,85.20
2018-08-25T15:45:06.812Z,85.50
2018-08-25T15:47:35.528Z,84.40
2018-08-25T15:50:04.355Z,84.60
2018-08-25T15:52:33.071Z,84.70
2018-08-25T15:55:01.717Z,85.10
2018-08-25T15:57:30.470Z,85.70
2018-08-25T15:59:59.159Z,85.30
2018-08-25T16:02:28.214Z,86.60
2018-08-25T16:05:01.589Z,86.70
2018-08-25T16:07:30.517Z,86.80
2018-08-25T16:09:59.418Z,86.40
2018-08-25T16:12:28.226Z,87.00
2018-08-25T16:14:56.810Z,87.70
2018-08-25T16:17:25.440Z,88.10
2018-08-25T16:19:54.409Z,87.90
2018-08-25T16:22:23.021Z,87.30
2018-08-25T16:24:51.671Z,87.90
2018-08-25T16:27:22.016Z,88.60
2018-08-25T16:29:51.911Z,88.60
2018-08-25T16:32:20.583Z,89.40
2018-08-25T16:34:52.502Z,90.00
2018-08-25T16:37:21.218Z,88.90
2018-08-25T16:39:52.612Z,89.60
2018-08-25T16:42:21.294Z,90.10
2018-08-25T16:44:49.899Z,90.20
2018-08-25T16:47:18.651Z,90.70
2018-08-25T16:49:47.592Z,90.70
2018-08-25T16:52:16.307Z,90.40
2018-08-25T16:54:45.004Z,90.60
2018-08-25T16:57:13.848Z,90.50
2018-08-25T16:59:42.480Z,90.90
2018-08-25T17:02:11.496Z,90.90
2018-08-25T17:04:42.111Z,90.80
2018-08-25T17:07:10.932Z,90.30
2018-08-25T17:09:39.922Z,91.30
2018-08-25T17:12:08.673Z,91.20
2018-08-25T17:14:38.012Z,91.20
2018-08-25T17:17:06.952Z,91.20
2018-08-25T17:19:35.800Z,91.10
2018-08-25T17:22:04.744Z,91.20
2018-08-25T17:24:33.276Z,91.20
2018-08-25T17:27:04.546Z,91.20
2018-08-25T17:29:33.301Z,91.70
2018-08-25T17:32:02.163Z,91.50
2018-08-25T17:34:31.319Z,91.70
2018-08-25T17:37:00.183Z,92.80
2018-08-25T17:39:28.910Z,92.60
2018-08-25T17:41:57.674Z,92.70
2018-08-25T17:44:26.646Z,91.70
2018-08-25T17:46:56.876Z,92.50
2018-08-25T17:49:26.419Z,92.50
2018-08-25T17:51:55.604Z,92.50
2018-08-25T17:54:24.423Z,92.50
2018-08-25T17:56:53.518Z,92.20
2018-08-25T17:59:22.409Z,92.30
2018-08-25T18:01:51.360Z,92.50
2018-08-25T18:04:24.880Z,91.50
2018-08-25T18:06:53.603Z,91.90
2018-08-25T18:09:22.325Z,91.70
2018-08-25T18:11:52.928Z,91.30
2018-08-25T18:14:21.621Z,91.70
2018-08-25T18:16:50.339Z,91.80
2018-08-25T18:19:19.104Z,91.60
2018-08-25T18:21:47.781Z,91.80
2018-08-25T18:24:16.552Z,91.60
2018-08-25T18:26:45.292Z,92.00
2018-08-25T18:29:14.077Z,91.50
2018-08-25T18:31:42.768Z,91.70
2018-08-25T18:34:11.434Z,91.50
2018-08-25T18:36:40.156Z,91.10
2018-08-25T18:39:11.008Z,91.10
2018-08-25T18:41:39.829Z,91.30
2018-08-25T18:44:11.134Z,91.50
2018-08-25T18:46:39.802Z,91.70
2018-08-25T18:49:12.084Z,91.20
2018-08-25T18:51:40.787Z,91.10
2018-08-25T18:54:09.476Z,91.30
2018-08-25T18:56:38.393Z,91.10
2018-08-25T18:59:07.111Z,91.40
2018-08-25T19:01:35.865Z,91.10
2018-08-25T19:04:04.607Z,90.70
2018-08-25T19:06:33.446Z,90.90
2018-08-25T19:09:02.246Z,91.40
2018-08-25T19:11:32.099Z,92.10
2018-08-25T19:16:41.719Z,91.80
2018-08-25T19:19:10.419Z,92.80
2018-08-25T19:21:38.946Z,92.40
2018-08-25T19:24:07.856Z,92.30
2018-08-25T19:26:36.522Z,92.60
2018-08-25T19:29:05.355Z,92.50
2018-08-25T19:31:34.238Z,92.70
2018-08-25T19:34:03.038Z,92.80
2018-08-25T19:36:31.757Z,92.60
2018-08-25T19:39:00.518Z,92.40
2018-08-25T19:41:32.841Z,92.70
2018-08-25T19:44:01.936Z,92.80
2018-08-25T19:46:31.150Z,92.90
2018-08-25T19:49:03.498Z,93.00
2018-08-25T19:51:33.396Z,92.90
2018-08-25T19:54:03.275Z,92.90
2018-08-25T19:56:32.661Z,92.60
2018-08-25T19:59:02.318Z,92.40
2018-08-25T20:01:31.359Z,92.80
2018-08-25T20:04:00.662Z,92.50
2018-08-25T20:06:30.286Z,92.90
2018-08-25T20:08:59.034Z,92.70
2018-08-25T20:11:27.822Z,92.80
2018-08-25T20:13:56.367Z,92.90
2018-08-25T20:16:25.807Z,92.80
2018-08-25T20:18:56.535Z,92.80
2018-08-25T20:21:25.365Z,92.80
2018-08-25T20:23:54.148Z,92.80
2018-08-25T20:26:22.967Z,92.70
2018-08-25T20:28:51.607Z,92.70
2018-08-25T20:31:20.393Z,93.20
2018-08-25T20:33:49.098Z,92.70
2018-08-25T20:36:17.837Z,92.70
2018-08-25T20:38:46.554Z,93.20
2018-08-25T20:41:15.282Z,93.20
2018-08-25T20:43:44.030Z,92.80
2018-08-25T20:46:12.698Z,92.70
2018-08-25T20:48:41.425Z,92.70
2018-08-25T20:51:10.091Z,93.20
2018-08-25T20:53:38.863Z,92.20
2018-08-25T20:56:07.611Z,92.70
2018-08-25T20:58:36.488Z,92.70
2018-08-25T21:01:05.260Z,93.30
2018-08-25T21:03:36.349Z,93.20
2018-08-25T21:06:05.487Z,93.10
2018-08-25T21:08:35.810Z,92.90
2018-08-25T21:11:04.633Z,93.30
2018-08-25T21:13:33.430Z,93.00
2018-08-25T21:16:02.780Z,92.80
2018-08-25T21:18:31.603Z,92.80
2018-08-25T21:21:00.271Z,92.80
2018-08-25T21:23:29.097Z,92.60
2018-08-25T21:25:58.018Z,92.70
2018-08-25T21:28:27.095Z,92.80
2018-08-25T21:30:55.770Z,92.80
2018-08-25T21:33:24.452Z,92.60
2018-08-25T21:35:53.550Z,92.80
2018-08-25T21:38:28.138Z,92.60
2018-08-25T21:40:56.811Z,92.80
2018-08-25T21:43:25.465Z,92.50
2018-08-25T21:45:54.246Z,92.70
2018-08-25T21:48:22.906Z,92.30
2018-08-25T21:50:51.724Z,92.10
2018-08-25T21:53:20.480Z,92.40
2018-08-25T21:55:49.173Z,92.10
2018-08-25T21:58:18.102Z,92.70
2018-08-25T22:00:52.106Z,92.60
2018-08-25T22:03:20.784Z,92.60
2018-08-25T22:05:49.777Z,92.60
2018-08-25T22:08:18.451Z,93.10
2018-08-25T22:10:47.132Z,92.70
2018-08-25T22:13:15.865Z,93.20
2018-08-25T22:15:44.704Z,93.20
2018-08-25T22:18:13.448Z,92.90
2018-08-25T22:20:42.154Z,93.20
2018-08-25T22:23:10.912Z,92.60
2018-08-25T22:25:39.836Z,92.70
2018-08-25T22:28:08.580Z,93.10
2018-08-25T22:30:37.305Z,93.00
2018-08-25T22:33:06.250Z,92.60
2018-08-25T22:35:34.928Z,92.60
2018-08-25T22:38:03.734Z,92.60
2018-08-25T22:40:34.017Z,92.60
2018-08-25T22:43:04.990Z,92.30
2018-08-25T22:45:33.644Z,91.80
2018-08-25T22:48:02.420Z,92.00
2018-08-25T22:50:32.943Z,92.70
2018-08-25T22:53:01.784Z,92.40
2018-08-25T22:55:32.911Z,92.50
2018-08-25T22:58:01.868Z,92.30
2018-08-25T23:00:33.614Z,92.90
2018-08-25T23:03:02.271Z,93.10
2018-08-25T23:05:35.573Z,93.00
2018-08-25T23:08:05.199Z,93.20
2018-08-25T23:10:34.732Z,93.30
2018-08-25T23:13:03.605Z,93.50
2018-08-25T23:15:32.819Z,93.40
2018-08-25T23:18:01.850Z,93.20
2018-08-25T23:20:33.691Z,93.30
2018-08-25T23:23:03.029Z,93.70
2018-08-25T23:25:31.618Z,93.30
2018-08-25T23:28:05.244Z,93.10
2018-08-25T23:30:33.960Z,93.10
2018-08-25T23:33:06.619Z,93.70
2018-08-25T23:35:35.180Z,93.80
2018-08-25T23:38:08.291Z,93.60
2018-08-25T23:40:37.302Z,93.40
2018-08-25T23:43:05.863Z,93.80
2018-08-25T23:45:34.740Z,93.70
2018-08-25T23:48:04.130Z,93.70
2018-08-25T23:50:32.681Z,93.60
2018-08-25T23:53:07.085Z,93.30
2018-08-25T23:55:35.840Z,93.40
2018-08-25T23:58:04.650Z,93.20
